Hlavní strana
METAR-TAF:

METAR-TAF

Letiště :

Springfield-Beckley Municipal Airport

Springfield, Ohio, Spojené státy americké

zeměpisná šířka: 39-50N, zeměpisná délka: 083-50W, výška: 321 m

Aktuální stav počasí

Zpráva byla vytvořena před 33 minutami, v 17:56 UTC
Severozápadní vítr 5 kt
Teplota 1°C
Vlhkost vzduchu 86%
Tlak 1021 hPa
Viditelnost: 9.7 km
Zataženo ve výšce 1400 ft
kouřmo

METAR: KSGH 181756Z AUTO 31005KT 6SM BR OVC014 01/M01 A3014 RMK AO2 SLP218 T00111011 10011 20000 50002

Čas: 13:29 (18:29 UTC)


TAF: chybějící

Stav a předpovědi počasí z více než 4 000 letišť (zprávy METAR a TAF).

Červené a žluté tečky na mapě představují dostupné meteorologické stanice.

Když kurzor umístíte na tečku, zobrazí se název stanice.

Pak kliknutím zobrazíte stav a předpověď počasí.

Chcete-li změnit mapu, kliknutím na zelené tlačítko se znaménkem +mapu přiblížíte, kliknutím na zelené tlačítko se znaménkem – mapu oddálíte a kliknutím na zelené šipky přejdete na sousední mapy.


METAR-TAF: